YCCY Airport Information

Runway Information
Runway 06 Length 3796 ft width 60 ft
Elevation 611 ft Threshold 0 ft Heading 68
Runway 24 Length 3796 ft Width 60 ft
Elevation 616 ft Threshold 0 ft Heading 248
Runway 12 Length 6562 ft width 98 ft
Elevation 612 ft Threshold 0 ft Heading 128
Runway 30 Length 6562 ft Width 98 ft
Elevation 613 ft Threshold 0 ft Heading 308
Airport Frequencies
Type CTAF Name CTAF Frequency 126.7 MHZ
Type FSS Name BRISBANE C Frequency 122.4 MHZ
Airport Navaids
Type NDB Name Cloncurry Frequency 264 KHZ
Airport Weather Information & NOTAM
ADDS - METARS form results

(0730 UTC 03 December 2021)
Data provider http://aviationweather.gov/metar/data/
 
METAR text: YCCY 030700Z AUTO 15007KT 9999 // NCD 39/08 Q1007
Conditions at: YCCY (CLONCURRY , AU) observed 0700 UTC 03 December 2021
Temperature: 39.0°C (102°F)
Dewpoint: 8.0°C (46°F) [RH = 15%]
Pressure (altimeter): 29.73 inches Hg (1007.0 mb)
Winds: from the SSE (150 degrees) at 8 MPH (7 knots; 3.6 m/s)
Visibility: 6 or more miles (10+ km)
Ceiling: at least 12,000 feet AGL
Clouds: sky clear below 12,000 feet AGL
Weather: no significant weather observed at this time